Time;durP1;ratioP1;P1;durP2;ratioP2;P2;SDS_P1;SDS_P2;PMS_P1;PMS_P2;Temp;Humidity;BMP_temperature;BMP_pressure;BME280_temperature;BME280_humidity;BME280_pressure;Samples;Min_cycle;Max_cycle;Signal;HPM_P1;HPM_P2
2023/10/21 00:05:31;;;;;;;5.82;0.50;;;8.10;99.90;;;;;;25341996;23;20037;-59
2023/10/21 00:15:34;;;;;;;5.85;0.47;;;8.00;99.90;;;;;;25341772;23;20016;-60
2023/10/21 00:25:36;;;;;;;2.95;0.50;;;8.00;99.90;;;;;;25340978;23;20006;-50
2023/10/21 00:35:37;;;;;;;5.55;1.00;;;8.30;99.90;;;;;;25340932;23;20006;-60
2023/10/21 00:45:39;;;;;;;2.40;0.90;;;8.50;99.90;;;;;;25340242;23;20006;-53
2023/10/21 00:55:41;;;;;;;4.90;1.00;;;8.70;99.90;;;;;;25314032;23;20006;-53
2023/10/21 01:05:43;;;;;;;4.88;0.80;;;8.80;99.90;;;;;;25313769;23;20013;-59
2023/10/21 01:15:45;;;;;;;6.45;1.23;;;8.90;99.90;;;;;;25339881;23;20342;-53
2023/10/21 01:25:47;;;;;;;6.07;0.77;;;8.90;99.90;;;;;;25312824;23;20010;-60
2023/10/21 01:35:48;;;;;;;3.08;0.73;;;8.90;99.90;;;;;;25313703;23;20037;-61
2023/10/21 01:45:50;;;;;;;1.75;0.50;;;9.10;99.90;;;;;;25313452;23;20006;-60
2023/10/21 01:56:02;;;;;;;6.20;0.70;;;9.20;99.90;;;;;;25312935;23;20107;-52
2023/10/21 02:06:06;;;;;;;1.95;0.63;;;9.30;99.90;;;;;;25353220;23;20009;-53
2023/10/21 02:16:11;;;;;;;4.60;0.63;;;9.40;99.90;;;;;;25340762;23;20056;-53
2023/10/21 02:26:13;;;;;;;4.10;0.70;;;9.30;99.90;;;;;;25345771;23;20489;-53
2023/10/21 02:36:14;;;;;;;7.32;1.05;;;9.30;99.90;;;;;;25345688;23;20009;-59
2023/10/21 02:46:16;;;;;;;5.32;0.95;;;9.30;99.90;;;;;;25345273;23;20006;-52
2023/10/21 02:56:18;;;;;;;5.50;0.90;;;9.50;99.90;;;;;;25344867;23;20018;-59
2023/10/21 03:06:24;;;;;;;9.10;1.02;;;9.60;99.90;;;;;;25210459;23;20066;-53
2023/10/21 03:16:25;;;;;;;4.88;0.93;;;9.60;99.90;;;;;;25213068;23;20011;-59
2023/10/21 03:26:27;;;;;;;7.40;1.20;;;9.60;99.90;;;;;;25185136;23;20019;-49
2023/10/21 03:36:29;;;;;;;4.47;0.90;;;9.60;99.90;;;;;;25314959;23;20017;-50
2023/10/21 03:46:31;;;;;;;6.00;0.75;;;9.70;99.90;;;;;;25342342;23;20085;-59
2023/10/21 03:56:33;;;;;;;4.03;0.68;;;9.80;99.90;;;;;;25341653;23;20018;-52
2023/10/21 04:06:35;;;;;;;4.53;0.60;;;9.90;99.90;;;;;;25341373;23;20006;-59
2023/10/21 04:16:42;;;;;;;3.28;0.70;;;9.90;99.90;;;;;;25341326;23;20377;-59
2023/10/21 04:26:44;;;;;;;7.47;0.95;;;9.70;99.90;;;;;;25380647;23;20002;-60
2023/10/21 04:36:46;;;;;;;4.78;1.02;;;9.50;99.90;;;;;;25339992;23;20049;-60
2023/10/21 04:46:48;;;;;;;5.03;0.98;;;9.40;99.90;;;;;;25340062;23;20390;-50
2023/10/21 04:56:51;;;;;;;7.35;0.98;;;9.40;99.90;;;;;;25339202;23;20009;-53
2023/10/21 05:06:53;;;;;;;5.13;0.80;;;9.40;99.90;;;;;;25340464;23;20014;-59
2023/10/21 05:16:55;;;;;;;8.57;0.93;;;9.40;99.90;;;;;;25338922;23;20438;-59
2023/10/21 05:26:57;;;;;;;4.75;0.68;;;9.40;99.90;;;;;;25338445;23;20009;-59
2023/10/21 05:36:59;;;;;;;5.63;0.80;;;9.50;99.90;;;;;;25338399;23;20014;-59
2023/10/21 05:47:00;;;;;;;8.65;1.00;;;9.40;99.90;;;;;;25338788;23;20057;-48
2023/10/21 05:57:02;;;;;;;9.02;0.90;;;9.50;99.90;;;;;;25345504;23;20524;-58
2023/10/21 06:07:05;;;;;;;5.60;1.13;;;9.40;99.90;;;;;;25345983;23;20338;-52
2023/10/21 06:17:07;;;;;;;4.47;1.30;;;9.50;99.90;;;;;;25319944;23;20303;-59
2023/10/21 06:27:11;;;;;;;3.58;0.90;;;9.40;99.90;;;;;;25344660;23;20072;-58
2023/10/21 06:37:13;;;;;;;5.22;0.85;;;9.50;99.90;;;;;;25345016;23;20014;-58
2023/10/21 06:47:15;;;;;;;6.25;0.90;;;9.70;99.90;;;;;;25344635;23;20442;-49
2023/10/21 06:57:20;;;;;;;2.88;0.60;;;9.90;99.90;;;;;;25344332;23;20025;-51
2023/10/21 07:07:22;;;;;;;2.42;0.55;;;10.20;99.90;;;;;;25343160;23;20300;-51
2023/10/21 07:17:24;;;;;;;5.43;0.80;;;10.40;99.90;;;;;;25343641;23;20006;-53
2023/10/21 07:27:26;;;;;;;5.38;0.93;;;11.10;99.90;;;;;;25342978;23;20052;-50
2023/10/21 07:37:28;;;;;;;4.63;0.40;;;11.40;99.90;;;;;;25342609;23;20006;-53
2023/10/21 07:47:30;;;;;;;3.03;0.63;;;11.50;99.90;;;;;;25342284;23;20382;-49
2023/10/21 07:57:32;;;;;;;7.85;0.63;;;11.60;99.90;;;;;;25341485;23;20506;-53
2023/10/21 08:07:35;;;;;;;3.10;0.70;;;11.30;99.90;;;;;;25341599;23;20056;-51
2023/10/21 08:17:36;;;;;;;2.80;0.60;;;10.90;99.90;;;;;;25340040;23;20002;-51
2023/10/21 08:27:38;;;;;;;5.85;0.63;;;10.60;99.90;;;;;;25340498;23;20010;-50
2023/10/21 08:37:40;;;;;;;3.05;0.55;;;11.00;99.90;;;;;;25340418;23;20184;-58
2023/10/21 08:47:44;;;;;;;2.78;0.52;;;11.70;99.90;;;;;;25341255;23;20508;-49
2023/10/21 08:57:48;;;;;;;4.88;0.40;;;11.90;99.90;;;;;;25339418;23;20014;-51
2023/10/21 09:07:50;;;;;;;1.88;0.40;;;11.60;99.90;;;;;;25338950;23;20010;-51
2023/10/21 09:17:52;;;;;;;1.95;0.40;;;11.20;99.90;;;;;;25339157;23;20041;-51
2023/10/21 09:27:55;;;;;;;2.88;0.47;;;11.20;99.90;;;;;;25338752;23;20005;-53
2023/10/21 09:38:14;;;;;;;3.38;0.60;;;11.20;99.90;;;;;;25339051;23;20039;-48
2023/10/21 09:48:16;;;;;;;3.33;0.57;;;11.50;99.90;;;;;;25380473;23;20330;-58
2023/10/21 09:58:20;;;;;;;5.15;0.35;;;11.80;99.90;;;;;;25338021;23;20014;-48
2023/10/21 10:08:22;;;;;;;3.55;0.50;;;12.20;99.90;;;;;;25337922;23;20093;-51
2023/10/21 10:18:25;;;;;;;3.15;0.57;;;12.80;99.90;;;;;;25337835;23;20002;-47
2023/10/21 10:28:27;;;;;;;2.47;0.50;;;13.10;99.90;;;;;;25337525;23;20326;-52
2023/10/21 10:38:33;;;;;;;4.32;0.73;;;13.30;99.90;;;;;;25339925;23;20013;-52
2023/10/21 10:48:35;;;;;;;3.80;0.80;;;13.70;99.90;;;;;;25384905;23;20014;-50
2023/10/21 10:58:38;;;;;;;3.00;0.70;;;14.60;99.90;;;;;;25344100;23;20021;-50
2023/10/21 11:08:40;;;;;;;4.88;1.05;;;15.30;99.90;;;;;;25343622;23;20017;-53
2023/10/21 11:18:42;;;;;;;4.32;0.73;;;15.70;99.90;;;;;;25344788;23;20061;-62
2023/10/21 11:28:44;;;;;;;4.45;0.70;;;16.00;99.90;;;;;;25343486;23;20006;-53
2023/10/21 11:38:46;;;;;;;2.45;0.55;;;16.00;99.90;;;;;;25342942;23;20061;-51
2023/10/21 11:48:50;;;;;;;5.07;0.50;;;15.60;99.90;;;;;;25342313;23;20014;-61
2023/10/21 12:39:47;;;;;;;1.27;0.20;;;15.70;99.90;;;;;;25380721;23;20012;-60
2023/10/21 12:49:55;;;;;;;1.95;0.30;;;15.60;99.90;;;;;;25354499;23;20006;-60
2023/10/21 12:59:57;;;;;;;2.40;0.22;;;15.20;99.90;;;;;;25350236;23;20009;-51
2023/10/21 13:09:59;;;;;;;1.85;0.30;;;15.60;99.90;;;;;;25339483;23;20010;-61
2023/10/21 13:20:01;;;;;;;4.18;0.50;;;15.30;99.90;;;;;;25338801;23;20006;-60
2023/10/21 13:30:10;;;;;;;2.10;0.60;;;14.70;99.90;;;;;;25313486;23;20014;-60
2023/10/21 13:40:16;;;;;;;3.63;0.90;;;14.30;99.90;;;;;;25379660;23;20746;-60
2023/10/21 13:50:23;;;;;;;2.42;0.90;;;14.30;99.90;;;;;;25378374;23;20014;-60
2023/10/21 14:10:31;;;;;;;1.95;0.40;;;14.30;99.90;;;;;;25338754;23;20345;-60
2023/10/21 14:20:41;;;;;;;1.27;0.32;;;14.60;99.90;;;;;;25345304;23;20434;-61
2023/10/21 14:30:47;;;;;;;0.90;0.30;;;14.60;99.90;;;;;;25385601;23;20037;-60
2023/10/21 14:40:49;;;;;;;1.45;0.30;;;14.40;99.90;;;;;;25385600;23;20006;-60
2023/10/21 14:50:51;;;;;;;3.08;0.40;;;14.20;99.90;;;;;;25344949;23;20049;-59
2023/10/21 15:00:53;;;;;;;3.25;1.00;;;13.70;99.90;;;;;;25221536;23;20073;-59
2023/10/21 15:10:55;;;;;;;4.60;1.95;;;13.20;99.90;;;;;;25223255;23;20439;-59
2023/10/21 15:21:07;;;;;;;9.93;3.30;;;12.90;99.90;;;;;;25222130;23;20091;-59
2023/10/21 15:31:10;;;;;;;9.95;5.05;;;12.60;99.90;;;;;;25222173;23;20338;-60
2023/10/21 15:41:16;;;;;;;7.97;4.28;;;12.40;99.90;;;;;;25221264;23;20374;-53
2023/10/21 15:51:17;;;;;;;8.70;5.13;;;12.20;99.90;;;;;;25221192;23;20002;-59
2023/10/21 16:01:28;;;;;;;5.53;4.72;;;12.00;99.90;;;;;;25224199;23;20386;-52
2023/10/21 16:11:30;;;;;;;9.85;5.40;;;11.70;99.90;;;;;;25220293;23;20010;-58
2023/10/21 16:21:32;;;;;;;8.93;5.30;;;11.30;99.90;;;;;;25220154;23;20010;-52
2023/10/21 16:31:34;;;;;;;13.75;5.70;;;11.10;99.90;;;;;;25220149;23;20454;-53
2023/10/21 16:41:36;;;;;;;8.10;4.75;;;10.80;99.90;;;;;;25193747;23;20064;-59
2023/10/21 16:51:38;;;;;;;7.38;4.28;;;10.30;99.90;;;;;;25219424;23;20054;-48
2023/10/21 17:01:40;;;;;;;1.80;1.40;;;9.80;99.90;;;;;;25217409;23;20476;-59
2023/10/21 17:11:42;;;;;;;3.47;0.40;;;9.40;99.90;;;;;;25219028;23;20014;-50
2023/10/21 17:21:44;;;;;;;3.35;1.00;;;9.10;99.90;;;;;;25218314;23;20010;-48
2023/10/21 17:31:45;;;;;;;1.48;0.50;;;8.80;99.90;;;;;;25218481;23;20006;-50
2023/10/21 17:41:48;;;;;;;1.38;0.60;;;8.80;99.90;;;;;;25218336;23;20308;-50
2023/10/21 17:51:50;;;;;;;2.80;0.60;;;9.00;99.90;;;;;;25224843;23;20066;-58
2023/10/21 18:01:52;;;;;;;1.02;0.35;;;9.10;99.90;;;;;;25336959;23;20139;-58
2023/10/21 18:11:54;;;;;;;0.85;0.52;;;9.30;99.90;;;;;;25346811;23;20016;-59
2023/10/21 18:21:56;;;;;;;6.78;1.40;;;9.40;99.90;;;;;;25345910;23;20006;-53
2023/10/21 18:31:58;;;;;;;4.70;1.60;;;9.40;99.90;;;;;;25347628;23;20076;-52
2023/10/21 18:42:00;;;;;;;4.63;1.65;;;9.50;99.90;;;;;;25345517;23;20002;-51
2023/10/21 18:52:02;;;;;;;7.85;3.70;;;9.50;99.90;;;;;;25345246;23;20010;-49
2023/10/21 19:02:04;;;;;;;5.07;2.00;;;9.20;99.90;;;;;;25222262;23;20027;-59
2023/10/21 19:12:05;;;;;;;6.97;3.00;;;9.00;99.90;;;;;;25223375;23;20007;-49
2023/10/21 19:22:07;;;;;;;3.63;2.35;;;8.80;99.90;;;;;;25222561;23;20042;-58
2023/10/21 19:32:09;;;;;;;7.82;4.50;;;8.50;99.90;;;;;;25221105;23;20034;-53
2023/10/21 19:42:12;;;;;;;3.10;1.83;;;8.50;99.90;;;;;;25221510;23;20006;-59
2023/10/21 19:52:17;;;;;;;4.25;1.73;;;8.60;99.90;;;;;;25219158;23;20019;-51
2023/10/21 20:02:19;;;;;;;5.78;1.85;;;8.80;99.90;;;;;;25337415;23;20401;-52
2023/10/21 20:12:21;;;;;;;4.78;1.70;;;9.20;99.90;;;;;;25341954;23;20006;-59
2023/10/21 20:22:23;;;;;;;12.70;5.50;;;9.50;99.90;;;;;;25340852;23;20430;-54
2023/10/21 20:32:25;;;;;;;9.70;5.85;;;9.80;99.90;;;;;;25341577;23;20068;-59
2023/10/21 20:42:26;;;;;;;12.55;7.97;;;10.10;99.90;;;;;;25340667;23;20406;-52
2023/10/21 20:52:28;;;;;;;15.07;7.72;;;10.30;99.90;;;;;;25340332;23;20002;-50
2023/10/21 21:02:32;;;;;;;11.45;7.15;;;10.50;99.90;;;;;;25339880;23;20097;-59
2023/10/21 21:12:33;;;;;;;17.42;9.73;;;10.60;99.90;;;;;;25339501;23;20508;-53
2023/10/21 21:22:35;;;;;;;17.40;10.55;;;10.70;99.90;;;;;;25338907;23;20006;-57
2023/10/21 21:32:37;;;;;;;23.15;10.30;;;10.80;99.90;;;;;;25339072;23;20037;-57
2023/10/21 21:42:39;;;;;;;18.02;12.77;;;10.50;99.90;;;;;;25338477;23;20017;-56
2023/10/21 21:52:41;;;;;;;44.03;11.57;;;10.60;99.90;;;;;;25338890;23;20330;-57
2023/10/21 22:02:43;;;;;;;20.10;15.27;;;10.60;99.90;;;;;;25339094;23;20092;-57
2023/10/21 22:12:45;;;;;;;19.83;12.93;;;10.50;99.90;;;;;;25338627;23;20009;-49
2023/10/21 22:22:49;;;;;;;6.57;2.75;;;10.00;99.90;;;;;;25338601;23;20006;-58
2023/10/21 22:32:51;;;;;;;3.80;1.63;;;9.20;99.90;;;;;;25314528;23;20009;-47
2023/10/21 22:42:53;;;;;;;6.78;4.05;;;8.60;99.90;;;;;;25345374;23;20006;-57
2023/10/21 22:52:54;;;;;;;6.30;4.35;;;8.30;99.90;;;;;;25345383;23;20010;-55
2023/10/21 23:02:58;;;;;;;3.97;1.73;;;8.30;99.90;;;;;;25385310;23;20014;-47
2023/10/21 23:13:00;;;;;;;2.25;0.80;;;8.50;99.90;;;;;;25344251;23;20799;-57
2023/10/21 23:23:04;;;;;;;4.53;0.90;;;8.60;99.90;;;;;;25344001;23;20084;-57
2023/10/21 23:33:06;;;;;;;3.80;0.80;;;8.80;99.90;;;;;;25343671;23;20010;-47
2023/10/21 23:43:10;;;;;;;5.28;1.40;;;8.90;99.90;;;;;;25342768;23;20057;-57
2023/10/21 23:53:12;;;;;;;4.70;0.80;;;9.10;99.90;;;;;;25342399;23;20006;-47
